sensor_id;sensor_type;location;lat;lon;timestamp;pressure;altitude;pressure_sealevel;temperature;humidity
63439;BME280;49567;48.958;8.294;2022-12-11T00:01:43;99880.44;;;1.78;75.94
63439;BME280;49567;48.958;8.294;2022-12-11T00:04:08;99872.00;;;1.68;76.13
63439;BME280;49567;48.958;8.294;2022-12-11T00:06:34;99875.06;;;1.65;76.14
63439;BME280;49567;48.958;8.294;2022-12-11T00:09:00;99882.03;;;1.66;76.07
63439;BME280;49567;48.958;8.294;2022-12-11T00:11:25;99880.59;;;1.63;75.93
63439;BME280;49567;48.958;8.294;2022-12-11T00:13:51;99880.78;;;1.62;76.01
63439;BME280;49567;48.958;8.294;2022-12-11T00:16:16;99882.84;;;1.60;76.06
63439;BME280;49567;48.958;8.294;2022-12-11T00:18:41;99880.41;;;1.58;75.73
63439;BME280;49567;48.958;8.294;2022-12-11T00:21:11;99888.00;;;1.54;75.66
63439;BME280;49567;48.958;8.294;2022-12-11T00:23:37;99882.00;;;1.52;75.68
63439;BME280;49567;48.958;8.294;2022-12-11T00:26:07;99881.81;;;1.54;75.50
63439;BME280;49567;48.958;8.294;2022-12-11T00:28:33;99871.94;;;1.48;75.43
63439;BME280;49567;48.958;8.294;2022-12-11T00:30:58;99880.53;;;1.43;75.34
63439;BME280;49567;48.958;8.294;2022-12-11T00:33:27;99883.19;;;1.37;75.46
63439;BME280;49567;48.958;8.294;2022-12-11T00:35:52;99881.75;;;1.34;75.60
63439;BME280;49567;48.958;8.294;2022-12-11T00:38:20;99875.97;;;1.31;75.52
63439;BME280;49567;48.958;8.294;2022-12-11T00:40:45;99888.28;;;1.32;76.09
63439;BME280;49567;48.958;8.294;2022-12-11T00:43:11;99887.66;;;1.30;75.40
63439;BME280;49567;48.958;8.294;2022-12-11T00:45:39;99889.50;;;1.29;75.34
63439;BME280;49567;48.958;8.294;2022-12-11T00:48:05;99892.19;;;1.29;75.59
63439;BME280;49567;48.958;8.294;2022-12-11T00:50:31;99896.50;;;1.30;75.17
63439;BME280;49567;48.958;8.294;2022-12-11T00:52:57;99895.50;;;1.31;75.34
63439;BME280;49567;48.958;8.294;2022-12-11T00:55:22;99894.84;;;1.29;75.56
63439;BME280;49567;48.958;8.294;2022-12-11T00:57:50;99893.16;;;1.15;75.24
63439;BME280;49567;48.958;8.294;2022-12-11T01:00:15;99893.97;;;1.16;75.54
63439;BME280;49567;48.958;8.294;2022-12-11T01:02:41;99901.34;;;1.14;75.28
63439;BME280;49567;48.958;8.294;2022-12-11T01:05:08;99895.16;;;1.07;76.05
63439;BME280;49567;48.958;8.294;2022-12-11T01:07:33;99901.72;;;1.04;75.49
63439;BME280;49567;48.958;8.294;2022-12-11T01:09:59;99902.41;;;0.85;76.38
63439;BME280;49567;48.958;8.294;2022-12-11T01:12:43;99912.97;;;0.99;76.13
63439;BME280;49567;48.958;8.294;2022-12-11T01:15:08;99907.84;;;0.98;75.34
63439;BME280;49567;48.958;8.294;2022-12-11T01:17:38;99910.25;;;0.93;75.36
63439;BME280;49567;48.958;8.294;2022-12-11T01:20:06;99915.28;;;0.75;76.05
63439;BME280;49567;48.958;8.294;2022-12-11T01:22:31;99919.22;;;0.79;75.81
63439;BME280;49567;48.958;8.294;2022-12-11T01:24:57;99914.75;;;0.92;75.88
63439;BME280;49567;48.958;8.294;2022-12-11T01:27:23;99924.69;;;0.98;75.15
63439;BME280;49567;48.958;8.294;2022-12-11T01:29:48;99929.97;;;0.92;75.34
63439;BME280;49567;48.958;8.294;2022-12-11T01:32:14;99922.09;;;0.84;75.04
63439;BME280;49567;48.958;8.294;2022-12-11T01:34:40;99921.31;;;0.56;75.46
63439;BME280;49567;48.958;8.294;2022-12-11T01:37:05;99924.53;;;0.30;76.25
63439;BME280;49567;48.958;8.294;2022-12-11T01:39:31;99917.59;;;0.08;76.55
63439;BME280;49567;48.958;8.294;2022-12-11T01:41:57;99921.59;;;0.18;76.97
63439;BME280;49567;48.958;8.294;2022-12-11T01:46:48;99937.97;;;0.43;76.77
63439;BME280;49567;48.958;8.294;2022-12-11T01:49:15;99936.03;;;0.51;76.34
63439;BME280;49567;48.958;8.294;2022-12-11T01:51:50;99935.75;;;0.46;76.49
63439;BME280;49567;48.958;8.294;2022-12-11T01:54:20;99937.69;;;0.52;75.69
63439;BME280;49567;48.958;8.294;2022-12-11T01:56:47;99931.97;;;0.34;76.57
63439;BME280;49567;48.958;8.294;2022-12-11T01:59:17;99937.47;;;0.54;76.72
63439;BME280;49567;48.958;8.294;2022-12-11T02:01:59;99937.56;;;0.67;75.85
63439;BME280;49567;48.958;8.294;2022-12-11T02:04:27;99940.28;;;0.74;75.95
63439;BME280;49567;48.958;8.294;2022-12-11T02:06:53;99942.19;;;0.80;75.94
63439;BME280;49567;48.958;8.294;2022-12-11T02:09:27;99949.34;;;0.79;75.65
63439;BME280;49567;48.958;8.294;2022-12-11T02:25:32;99943.34;;;0.98;75.25
63439;BME280;49567;48.958;8.294;2022-12-11T02:31:06;99944.63;;;0.75;75.86
63439;BME280;49567;48.958;8.294;2022-12-11T02:33:58;99944.28;;;0.84;75.49
63439;BME280;49567;48.958;8.294;2022-12-11T02:36:27;99937.94;;;0.85;75.66
63439;BME280;49567;48.958;8.294;2022-12-11T02:38:55;99942.28;;;0.93;75.46
63439;BME280;49567;48.958;8.294;2022-12-11T02:41:23;99946.41;;;0.95;75.48
63439;BME280;49567;48.958;8.294;2022-12-11T02:43:50;99939.59;;;0.93;75.53
63439;BME280;49567;48.958;8.294;2022-12-11T02:46:19;99932.69;;;0.98;75.81
63439;BME280;49567;48.958;8.294;2022-12-11T02:48:47;99928.13;;;0.99;75.64
63439;BME280;49567;48.958;8.294;2022-12-11T02:51:15;99927.16;;;0.72;75.80
63439;BME280;49567;48.958;8.294;2022-12-11T02:53:42;99924.59;;;0.58;77.16
63439;BME280;49567;48.958;8.294;2022-12-11T02:56:16;99926.56;;;0.77;76.23
63439;BME280;49567;48.958;8.294;2022-12-11T02:58:48;99933.03;;;0.89;76.27
63439;BME280;49567;48.958;8.294;2022-12-11T03:01:15;99921.75;;;0.93;76.04
63439;BME280;49567;48.958;8.294;2022-12-11T03:03:40;99920.66;;;0.81;76.47
63439;BME280;49567;48.958;8.294;2022-12-11T03:06:08;99920.94;;;0.93;76.09
63439;BME280;49567;48.958;8.294;2022-12-11T03:08:35;99924.84;;;0.97;75.82
63439;BME280;49567;48.958;8.294;2022-12-11T03:11:01;99930.38;;;0.89;76.11
63439;BME280;49567;48.958;8.294;2022-12-11T03:13:26;99915.41;;;0.94;76.12
63439;BME280;49567;48.958;8.294;2022-12-11T03:22:15;99913.78;;;1.00;75.69
63439;BME280;49567;48.958;8.294;2022-12-11T03:24:46;99918.31;;;0.99;75.60
63439;BME280;49567;48.958;8.294;2022-12-11T03:27:33;99914.19;;;0.69;76.35
63439;BME280;49567;48.958;8.294;2022-12-11T03:30:07;99918.44;;;0.85;77.07
63439;BME280;49567;48.958;8.294;2022-12-11T03:32:38;99912.97;;;0.99;76.37
63439;BME280;49567;48.958;8.294;2022-12-11T03:35:12;99920.06;;;0.86;76.05
63439;BME280;49567;48.958;8.294;2022-12-11T03:37:39;99917.88;;;0.96;76.45
63439;BME280;49567;48.958;8.294;2022-12-11T03:40:10;99924.84;;;0.97;75.85
63439;BME280;49567;48.958;8.294;2022-12-11T03:42:38;99922.44;;;1.02;76.17
63439;BME280;49567;48.958;8.294;2022-12-11T03:45:05;99923.28;;;1.09;76.05
63439;BME280;49567;48.958;8.294;2022-12-11T03:47:31;99923.09;;;1.11;75.57
63439;BME280;49567;48.958;8.294;2022-12-11T03:49:58;99926.19;;;1.14;75.85
63439;BME280;49567;48.958;8.294;2022-12-11T03:52:26;99920.66;;;1.16;75.41
63439;BME280;49567;48.958;8.294;2022-12-11T03:54:55;99919.63;;;1.17;75.50
63439;BME280;49567;48.958;8.294;2022-12-11T03:57:25;99922.72;;;1.20;75.68
63439;BME280;49567;48.958;8.294;2022-12-11T03:59:51;99929.34;;;1.24;75.36
63439;BME280;49567;48.958;8.294;2022-12-11T04:02:16;99927.50;;;1.25;75.47
63439;BME280;49567;48.958;8.294;2022-12-11T04:04:42;99928.69;;;1.22;75.62
63439;BME280;49567;48.958;8.294;2022-12-11T04:07:08;99929.75;;;1.28;75.53
63439;BME280;49567;48.958;8.294;2022-12-11T04:09:33;99931.38;;;1.29;75.27
63439;BME280;49567;48.958;8.294;2022-12-11T04:11:59;99921.34;;;1.31;75.83
63439;BME280;49567;48.958;8.294;2022-12-11T04:14:24;99920.53;;;1.30;75.33
63439;BME280;49567;48.958;8.294;2022-12-11T04:17:08;99907.19;;;1.30;76.02
63439;BME280;49567;48.958;8.294;2022-12-11T04:19:34;99906.94;;;1.25;75.59
63439;BME280;49567;48.958;8.294;2022-12-11T04:22:18;99910.88;;;1.29;75.55
63439;BME280;49567;48.958;8.294;2022-12-11T04:25:03;99907.59;;;1.27;75.50
63439;BME280;49567;48.958;8.294;2022-12-11T04:27:29;99908.19;;;1.29;75.56
63439;BME280;49567;48.958;8.294;2022-12-11T04:30:16;99915.59;;;1.27;75.94
63439;BME280;49567;48.958;8.294;2022-12-11T04:32:41;99916.19;;;1.29;75.94
63439;BME280;49567;48.958;8.294;2022-12-11T04:35:08;99921.97;;;1.33;75.66
63439;BME280;49567;48.958;8.294;2022-12-11T04:37:35;99928.31;;;1.32;75.84
63439;BME280;49567;48.958;8.294;2022-12-11T04:40:01;99928.56;;;1.37;75.63
63439;BME280;49567;48.958;8.294;2022-12-11T04:42:27;99929.59;;;1.36;75.88
63439;BME280;49567;48.958;8.294;2022-12-11T04:44:52;99924.66;;;1.39;75.68
63439;BME280;49567;48.958;8.294;2022-12-11T04:47:17;99926.28;;;1.34;75.64
63439;BME280;49567;48.958;8.294;2022-12-11T04:49:43;99920.97;;;1.34;75.36
63439;BME280;49567;48.958;8.294;2022-12-11T04:52:08;99928.34;;;1.38;75.19
63439;BME280;49567;48.958;8.294;2022-12-11T04:54:33;99922.22;;;1.38;75.47
63439;BME280;49567;48.958;8.294;2022-12-11T04:56:59;99920.13;;;1.33;75.22
63439;BME280;49567;48.958;8.294;2022-12-11T04:59:24;99915.41;;;1.35;75.58
63439;BME280;49567;48.958;8.294;2022-12-11T05:01:49;99906.97;;;1.32;75.58
63439;BME280;49567;48.958;8.294;2022-12-11T05:04:15;99910.47;;;1.32;75.43
63439;BME280;49567;48.958;8.294;2022-12-11T05:06:40;99907.19;;;1.30;75.20
63439;BME280;49567;48.958;8.294;2022-12-11T05:09:10;99910.28;;;1.34;75.47
63439;BME280;49567;48.958;8.294;2022-12-11T05:11:36;99905.13;;;1.32;75.41
63439;BME280;49567;48.958;8.294;2022-12-11T05:14:01;99913.13;;;1.32;75.47
63439;BME280;49567;48.958;8.294;2022-12-11T05:16:26;99907.38;;;1.29;75.32
63439;BME280;49567;48.958;8.294;2022-12-11T05:18:51;99912.69;;;1.29;75.17
63439;BME280;49567;48.958;8.294;2022-12-11T05:21:17;99906.97;;;1.32;74.77
63439;BME280;49567;48.958;8.294;2022-12-11T05:23:42;99909.78;;;1.17;75.16
63439;BME280;49567;48.958;8.294;2022-12-11T05:26:12;99907.97;;;1.24;75.03
63439;BME280;49567;48.958;8.294;2022-12-11T05:28:38;99908.59;;;1.26;75.05
63439;BME280;49567;48.958;8.294;2022-12-11T05:31:07;99898.50;;;1.15;75.32
63439;BME280;49567;48.958;8.294;2022-12-11T05:33:33;99892.94;;;1.17;75.52
63439;BME280;49567;48.958;8.294;2022-12-11T05:35:59;99885.41;;;1.27;75.07
63439;BME280;49567;48.958;8.294;2022-12-11T05:38:24;99883.38;;;1.35;75.02
63439;BME280;49567;48.958;8.294;2022-12-11T05:40:56;99879.25;;;1.33;74.99
63439;BME280;49567;48.958;8.294;2022-12-11T05:43:22;99881.31;;;1.31;74.72
63439;BME280;49567;48.958;8.294;2022-12-11T05:45:47;99885.19;;;1.22;74.98
63439;BME280;49567;48.958;8.294;2022-12-11T05:48:13;99879.03;;;1.21;75.36
63439;BME280;49567;48.958;8.294;2022-12-11T05:50:38;99887.84;;;1.22;74.85
63439;BME280;49567;48.958;8.294;2022-12-11T05:53:03;99885.38;;;1.20;75.33
63439;BME280;49567;48.958;8.294;2022-12-11T05:55:29;99876.53;;;1.20;75.04
63439;BME280;49567;48.958;8.294;2022-12-11T05:57:57;99875.72;;;1.19;75.03
63439;BME280;49567;48.958;8.294;2022-12-11T06:00:23;99874.22;;;1.10;75.37
63439;BME280;49567;48.958;8.294;2022-12-11T06:02:48;99871.50;;;0.97;75.93
63439;BME280;49567;48.958;8.294;2022-12-11T06:05:13;99870.13;;;1.08;75.39
63439;BME280;49567;48.958;8.294;2022-12-11T06:07:39;99871.59;;;1.17;75.35
63439;BME280;49567;48.958;8.294;2022-12-11T06:10:04;99866.66;;;1.14;75.21
63439;BME280;49567;48.958;8.294;2022-12-11T06:12:30;99862.53;;;1.04;75.67
63439;BME280;49567;48.958;8.294;2022-12-11T06:14:56;99859.88;;;1.11;75.57
63439;BME280;49567;48.958;8.294;2022-12-11T06:17:21;99854.97;;;1.15;74.93
63439;BME280;49567;48.958;8.294;2022-12-11T06:19:46;99851.88;;;1.11;74.96
63439;BME280;49567;48.958;8.294;2022-12-11T06:22:11;99861.13;;;1.15;75.37
63439;BME280;49567;48.958;8.294;2022-12-11T06:24:37;99853.31;;;1.14;75.55
63439;BME280;49567;48.958;8.294;2022-12-11T06:27:02;99858.88;;;1.19;75.34
63439;BME280;49567;48.958;8.294;2022-12-11T06:29:27;99853.97;;;1.22;75.33
63439;BME280;49567;48.958;8.294;2022-12-11T06:31:53;99857.44;;;1.23;74.84
63439;BME280;49567;48.958;8.294;2022-12-11T06:34:18;99853.75;;;1.17;74.88
63439;BME280;49567;48.958;8.294;2022-12-11T06:36:43;99860.09;;;1.16;75.03
63439;BME280;49567;48.958;8.294;2022-12-11T06:39:08;99857.03;;;1.19;75.27
63439;BME280;49567;48.958;8.294;2022-12-11T06:41:34;99862.78;;;1.23;75.22
63439;BME280;49567;48.958;8.294;2022-12-11T06:43:59;99852.94;;;1.23;74.99
63439;BME280;49567;48.958;8.294;2022-12-11T06:46:24;99860.34;;;1.21;74.91
63439;BME280;49567;48.958;8.294;2022-12-11T06:48:50;99866.06;;;1.18;75.35
63439;BME280;49567;48.958;8.294;2022-12-11T06:51:18;99867.06;;;1.11;75.38
63439;BME280;49567;48.958;8.294;2022-12-11T06:53:50;99862.53;;;1.11;75.66
63439;BME280;49567;48.958;8.294;2022-12-11T06:56:16;99866.84;;;1.12;75.27
63439;BME280;49567;48.958;8.294;2022-12-11T06:58:42;99863.81;;;1.15;75.01
63439;BME280;49567;48.958;8.294;2022-12-11T07:01:19;99859.06;;;1.11;75.10
63439;BME280;49567;48.958;8.294;2022-12-11T07:03:44;99867.63;;;1.06;75.59
63439;BME280;49567;48.958;8.294;2022-12-11T07:06:10;99872.34;;;1.04;75.28
63439;BME280;49567;48.958;8.294;2022-12-11T07:08:35;99866.78;;;0.99;75.15
63439;BME280;49567;48.958;8.294;2022-12-11T07:11:02;99870.88;;;0.95;75.45
63439;BME280;49567;48.958;8.294;2022-12-11T07:13:28;99874.03;;;1.05;74.96
63439;BME280;49567;48.958;8.294;2022-12-11T07:15:53;99876.25;;;1.01;75.37
63439;BME280;49567;48.958;8.294;2022-12-11T07:18:19;99874.53;;;0.87;75.89
63439;BME280;49567;48.958;8.294;2022-12-11T07:20:44;99874.91;;;0.84;76.02
63439;BME280;49567;48.958;8.294;2022-12-11T07:23:10;99861.81;;;0.89;76.26
63439;BME280;49567;48.958;8.294;2022-12-11T07:25:36;99859.16;;;0.96;76.14
63439;BME280;49567;48.958;8.294;2022-12-11T07:28:01;99864.31;;;0.97;75.52
63439;BME280;49567;48.958;8.294;2022-12-11T07:30:26;99872.72;;;0.94;76.16
63439;BME280;49567;48.958;8.294;2022-12-11T07:32:51;99882.00;;;0.98;75.91
63439;BME280;49567;48.958;8.294;2022-12-11T07:35:17;99878.94;;;1.01;75.90
63439;BME280;49567;48.958;8.294;2022-12-11T07:37:42;99883.94;;;0.83;76.55
63439;BME280;49567;48.958;8.294;2022-12-11T07:40:09;99884.97;;;0.82;76.30
63439;BME280;49567;48.958;8.294;2022-12-11T07:42:34;99878.38;;;0.78;76.95
63439;BME280;49567;48.958;8.294;2022-12-11T07:44:59;99870.03;;;0.88;76.89
63439;BME280;49567;48.958;8.294;2022-12-11T07:47:24;99874.16;;;0.97;76.58
63439;BME280;49567;48.958;8.294;2022-12-11T07:49:50;99870.31;;;1.06;76.54
63439;BME280;49567;48.958;8.294;2022-12-11T07:52:15;99877.91;;;1.09;75.99
63439;BME280;49567;48.958;8.294;2022-12-11T07:54:40;99888.94;;;0.99;76.44
63439;BME280;49567;48.958;8.294;2022-12-11T07:57:05;99882.41;;;1.02;76.46
63439;BME280;49567;48.958;8.294;2022-12-11T07:59:31;99884.94;;;1.17;76.31
63439;BME280;49567;48.958;8.294;2022-12-11T08:01:56;99885.56;;;1.19;76.19
63439;BME280;49567;48.958;8.294;2022-12-11T08:04:21;99889.66;;;1.15;76.58
63439;BME280;49567;48.958;8.294;2022-12-11T08:06:47;99886.16;;;1.14;76.54
63439;BME280;49567;48.958;8.294;2022-12-11T08:09:12;99890.69;;;1.14;76.27
63439;BME280;49567;48.958;8.294;2022-12-11T08:11:38;99888.84;;;1.14;76.41
63439;BME280;49567;48.958;8.294;2022-12-11T08:14:04;99895.53;;;1.03;76.74
63439;BME280;49567;48.958;8.294;2022-12-11T08:16:31;99892.34;;;1.15;76.52
63439;BME280;49567;48.958;8.294;2022-12-11T08:18:57;99889.88;;;1.20;76.56
63439;BME280;49567;48.958;8.294;2022-12-11T08:21:25;99890.91;;;1.25;76.23
63439;BME280;49567;48.958;8.294;2022-12-11T08:23:52;99896.06;;;1.27;76.06
63439;BME280;49567;48.958;8.294;2022-12-11T08:26:21;99898.75;;;1.27;76.15
63439;BME280;49567;48.958;8.294;2022-12-11T08:28:46;99903.06;;;1.28;76.12
63439;BME280;49567;48.958;8.294;2022-12-11T08:31:13;99896.91;;;1.27;76.20
63439;BME280;49567;48.958;8.294;2022-12-11T08:33:39;99895.50;;;1.31;76.49
63439;BME280;49567;48.958;8.294;2022-12-11T08:36:07;99893.03;;;1.36;76.26
63439;BME280;49567;48.958;8.294;2022-12-11T08:38:33;99889.53;;;1.36;75.96
63439;BME280;49567;48.958;8.294;2022-12-11T08:41:07;99891.16;;;1.30;76.18
63439;BME280;49567;48.958;8.294;2022-12-11T08:43:32;99893.63;;;1.32;76.11
63439;BME280;49567;48.958;8.294;2022-12-11T08:45:58;99886.00;;;1.29;76.27
63439;BME280;49567;48.958;8.294;2022-12-11T08:48:23;99882.91;;;1.25;76.36
63439;BME280;49567;48.958;8.294;2022-12-11T08:50:48;99880.28;;;1.32;76.26
63439;BME280;49567;48.958;8.294;2022-12-11T08:53:13;99880.28;;;1.32;76.37
63439;BME280;49567;48.958;8.294;2022-12-11T08:55:39;99877.63;;;1.38;76.42
63439;BME280;49567;48.958;8.294;2022-12-11T08:58:04;99869.03;;;1.43;76.26
63439;BME280;49567;48.958;8.294;2022-12-11T09:00:29;99873.56;;;1.49;75.77
63439;BME280;49567;48.958;8.294;2022-12-11T09:02:55;99872.13;;;1.46;75.91
63439;BME280;49567;48.958;8.294;2022-12-11T09:05:20;99867.41;;;1.48;75.80
63439;BME280;49567;48.958;8.294;2022-12-11T09:07:45;99866.94;;;1.38;76.22
63439;BME280;49567;48.958;8.294;2022-12-11T09:10:11;99865.50;;;1.36;76.56
63439;BME280;49567;48.958;8.294;2022-12-11T09:12:36;99867.81;;;1.52;76.21
63439;BME280;49567;48.958;8.294;2022-12-11T09:15:03;99861.09;;;1.63;75.45
63439;BME280;49567;48.958;8.294;2022-12-11T09:17:28;99862.53;;;1.65;75.83
63439;BME280;49567;48.958;8.294;2022-12-11T09:19:53;99860.69;;;1.72;75.62
63439;BME280;49567;48.958;8.294;2022-12-11T09:22:19;99857.00;;;1.67;75.15
63439;BME280;49567;48.958;8.294;2022-12-11T09:24:44;99857.41;;;1.64;75.59
63439;BME280;49567;48.958;8.294;2022-12-11T09:27:10;99858.84;;;1.66;75.49
63439;BME280;49567;48.958;8.294;2022-12-11T09:29:35;99856.78;;;1.75;75.23
63439;BME280;49567;48.958;8.294;2022-12-11T09:32:02;99864.41;;;1.78;74.72
63439;BME280;49567;48.958;8.294;2022-12-11T09:34:27;99864.59;;;1.70;75.26
63439;BME280;49567;48.958;8.294;2022-12-11T09:36:52;99860.09;;;1.77;75.19
63439;BME280;49567;48.958;8.294;2022-12-11T09:39:17;99858.44;;;1.82;74.58
63439;BME280;49567;48.958;8.294;2022-12-11T09:46:46;99854.78;;;1.90;75.01
63439;BME280;49567;48.958;8.294;2022-12-11T09:49:21;99855.41;;;2.05;74.70
63439;BME280;49567;48.958;8.294;2022-12-11T09:54:31;99849.44;;;2.16;74.24
63439;BME280;49567;48.958;8.294;2022-12-11T09:57:46;99841.63;;;2.28;73.88
63439;BME280;49567;48.958;8.294;2022-12-11T10:00:32;99847.59;;;2.36;73.65
63439;BME280;49567;48.958;8.294;2022-12-11T10:08:44;99834.22;;;2.43;73.28
63439;BME280;49567;48.958;8.294;2022-12-11T10:14:12;99834.00;;;2.44;73.63
63439;BME280;49567;48.958;8.294;2022-12-11T10:16:46;99828.88;;;2.49;73.25
63439;BME280;49567;48.958;8.294;2022-12-11T10:19:25;99819.78;;;2.63;73.19
63439;BME280;49567;48.958;8.294;2022-12-11T10:21:52;99819.97;;;2.69;72.76
63439;BME280;49567;48.958;8.294;2022-12-11T10:24:33;99815.66;;;2.68;72.85
63439;BME280;49567;48.958;8.294;2022-12-11T10:27:13;99807.19;;;2.77;72.69
63439;BME280;49567;48.958;8.294;2022-12-11T10:29:39;99810.91;;;2.83;72.74
63439;BME280;49567;48.958;8.294;2022-12-11T10:32:31;99805.72;;;2.88;72.54
63439;BME280;49567;48.958;8.294;2022-12-11T10:35:01;99800.34;;;2.94;72.19
63439;BME280;49567;48.958;8.294;2022-12-11T10:37:29;99794.41;;;2.92;72.10
63439;BME280;49567;48.958;8.294;2022-12-11T10:39:54;99797.69;;;2.88;72.35
63439;BME280;49567;48.958;8.294;2022-12-11T10:42:21;99795.84;;;2.88;72.16
63439;BME280;49567;48.958;8.294;2022-12-11T10:45:02;99791.09;;;2.84;72.03
63439;BME280;49567;48.958;8.294;2022-12-11T10:47:28;99791.97;;;2.71;72.63
63439;BME280;49567;48.958;8.294;2022-12-11T10:49:57;99787.66;;;2.70;72.75
63439;BME280;49567;48.958;8.294;2022-12-11T10:52:25;99789.94;;;2.73;72.61
63439;BME280;49567;48.958;8.294;2022-12-11T10:54:58;99796.94;;;2.54;73.21
63439;BME280;49567;48.958;8.294;2022-12-11T10:57:29;99792.22;;;2.63;73.44
63439;BME280;49567;48.958;8.294;2022-12-11T10:59:56;99785.41;;;2.60;73.26
63439;BME280;49567;48.958;8.294;2022-12-11T11:02:30;99785.81;;;2.64;73.01
63439;BME280;49567;48.958;8.294;2022-12-11T11:04:58;99784.59;;;2.67;72.75
63439;BME280;49567;48.958;8.294;2022-12-11T11:07:27;99782.09;;;2.72;72.36
63439;BME280;49567;48.958;8.294;2022-12-11T11:10:13;99779.44;;;2.72;72.36
63439;BME280;49567;48.958;8.294;2022-12-11T11:12:41;99771.38;;;2.78;72.29
63439;BME280;49567;48.958;8.294;2022-12-11T11:15:26;99770.91;;;2.94;72.02
63439;BME280;49567;48.958;8.294;2022-12-11T11:17:54;99768.66;;;2.91;71.75
63439;BME280;49567;48.958;8.294;2022-12-11T11:20:23;99767.00;;;2.90;71.65
63439;BME280;49567;48.958;8.294;2022-12-11T11:22:52;99766.19;;;2.90;71.86
63439;BME280;49567;48.958;8.294;2022-12-11T11:25:20;99769.47;;;2.92;71.57
63439;BME280;49567;48.958;8.294;2022-12-11T11:28:07;99763.31;;;2.91;71.39
63439;BME280;49567;48.958;8.294;2022-12-11T11:30:38;99761.66;;;2.90;71.53
63439;BME280;49567;48.958;8.294;2022-12-11T11:35:37;99758.53;;;2.93;71.48
63439;BME280;49567;48.958;8.294;2022-12-11T11:38:15;99759.34;;;3.00;71.53
63439;BME280;49567;48.958;8.294;2022-12-11T11:41:07;99761.59;;;3.03;71.37
63439;BME280;49567;48.958;8.294;2022-12-11T11:43:37;99762.25;;;2.99;71.37
63439;BME280;49567;48.958;8.294;2022-12-11T11:53:39;99761.03;;;2.95;71.62
63439;BME280;49567;48.958;8.294;2022-12-11T11:59:12;99757.50;;;3.01;71.25
63439;BME280;49567;48.958;8.294;2022-12-11T12:01:35;99758.16;;;2.96;71.11
63439;BME280;49567;48.958;8.294;2022-12-11T12:04:01;99758.22;;;2.70;71.52
63439;BME280;49567;48.958;8.294;2022-12-11T12:09:32;99748.75;;;2.74;71.77
63439;BME280;49567;48.958;8.294;2022-12-11T12:17:35;99748.13;;;2.79;71.94
63439;BME280;49567;48.958;8.294;2022-12-11T12:20:24;99742.75;;;2.85;71.54
63439;BME280;49567;48.958;8.294;2022-12-11T12:22:55;99750.97;;;2.84;71.64
63439;BME280;49567;48.958;8.294;2022-12-11T12:25:42;99749.13;;;2.84;71.63
63439;BME280;49567;48.958;8.294;2022-12-11T12:34:16;99736.91;;;3.01;70.79
63439;BME280;49567;48.958;8.294;2022-12-11T12:47:14;99717.28;;;3.14;70.82
63439;BME280;49567;48.958;8.294;2022-12-11T12:49:48;99722.53;;;3.27;70.64
63439;BME280;49567;48.958;8.294;2022-12-11T12:52:28;99710.81;;;3.28;70.72
63439;BME280;49567;48.958;8.294;2022-12-11T12:54:57;99712.69;;;3.21;70.18
63439;BME280;49567;48.958;8.294;2022-12-11T12:57:41;99711.75;;;3.09;70.31
63439;BME280;49567;48.958;8.294;2022-12-11T13:00:09;99715.88;;;3.05;70.16
63439;BME280;49567;48.958;8.294;2022-12-11T13:02:49;99714.63;;;3.07;70.06
63439;BME280;49567;48.958;8.294;2022-12-11T13:05:27;99723.28;;;3.09;69.95
63439;BME280;49567;48.958;8.294;2022-12-11T13:07:56;99721.44;;;3.03;69.62
63439;BME280;49567;48.958;8.294;2022-12-11T13:10:31;99722.50;;;3.02;69.88
63439;BME280;49567;48.958;8.294;2022-12-11T13:12:57;99719.59;;;3.04;69.67
63439;BME280;49567;48.958;8.294;2022-12-11T13:15:25;99721.00;;;3.06;69.55
63439;BME280;49567;48.958;8.294;2022-12-11T13:17:51;99715.66;;;3.06;69.61
63439;BME280;49567;48.958;8.294;2022-12-11T13:20:21;99712.97;;;3.06;69.85
63439;BME280;49567;48.958;8.294;2022-12-11T13:23:07;99718.13;;;3.08;69.73
63439;BME280;49567;48.958;8.294;2022-12-11T13:25:55;99722.25;;;3.04;69.43
63439;BME280;49567;48.958;8.294;2022-12-11T13:31:40;99723.56;;;2.95;69.81
63439;BME280;49567;48.958;8.294;2022-12-11T13:33:53;99716.94;;;2.97;70.00
63439;BME280;49567;48.958;8.294;2022-12-11T13:38:47;99719.88;;;2.89;69.78
63439;BME280;49567;48.958;8.294;2022-12-11T13:41:17;99729.75;;;2.89;70.27
63439;BME280;49567;48.958;8.294;2022-12-11T13:43:44;99732.59;;;2.94;69.63
63439;BME280;49567;48.958;8.294;2022-12-11T13:46:12;99724.38;;;2.95;69.92
63439;BME280;49567;48.958;8.294;2022-12-11T13:48:45;99721.91;;;2.94;69.81
63439;BME280;49567;48.958;8.294;2022-12-11T13:51:17;99738.38;;;2.91;69.71
63439;BME280;49567;48.958;8.294;2022-12-11T13:53:43;99728.16;;;2.81;70.00
63439;BME280;49567;48.958;8.294;2022-12-11T13:56:17;99734.50;;;2.80;70.04
63439;BME280;49567;48.958;8.294;2022-12-11T13:58:43;99731.66;;;2.82;69.86
63439;BME280;49567;48.958;8.294;2022-12-11T14:01:20;99731.03;;;2.80;70.03
63439;BME280;49567;48.958;8.294;2022-12-11T14:03:59;99725.31;;;2.70;70.26
63439;BME280;49567;48.958;8.294;2022-12-11T14:06:26;99731.91;;;2.67;70.57
63439;BME280;49567;48.958;8.294;2022-12-11T14:08:54;99734.16;;;2.63;70.39
63439;BME280;49567;48.958;8.294;2022-12-11T14:11:24;99744.50;;;2.60;70.96
63439;BME280;49567;48.958;8.294;2022-12-11T14:13:52;99744.09;;;2.56;70.66
63439;BME280;49567;48.958;8.294;2022-12-11T14:16:21;99744.50;;;2.53;70.92
63439;BME280;49567;48.958;8.294;2022-12-11T14:18:49;99743.06;;;2.51;71.17
63439;BME280;49567;48.958;8.294;2022-12-11T14:21:20;99746.78;;;2.50;71.07
63439;BME280;49567;48.958;8.294;2022-12-11T14:23:56;99745.31;;;2.47;70.98
63439;BME280;49567;48.958;8.294;2022-12-11T14:26:27;99747.22;;;2.47;71.27
63439;BME280;49567;48.958;8.294;2022-12-11T14:28:54;99755.22;;;2.47;70.94
63439;BME280;49567;48.958;8.294;2022-12-11T14:31:29;99755.03;;;2.42;71.09
63439;BME280;49567;48.958;8.294;2022-12-11T14:34:10;99763.03;;;2.42;71.00
63439;BME280;49567;48.958;8.294;2022-12-11T14:36:38;99756.69;;;2.43;70.85
63439;BME280;49567;48.958;8.294;2022-12-11T14:39:26;99756.69;;;2.43;71.01
63439;BME280;49567;48.958;8.294;2022-12-11T14:41:59;99754.19;;;2.41;71.08
63439;BME280;49567;48.958;8.294;2022-12-11T14:44:29;99756.47;;;2.38;71.07